Airfield :
LOGIN :

Register | Disclaimer

   EN    FR    IT 

 










Legend :    VFR   Marginal VFR   IFR   Intensive IFR   Very Intensive IFR
Visi :
Ceiling :
>= 8 km
>= 3000ft
5 to 8 km
1000 to 3000 ft
1500m to 5 km
500 to 1000 ft
800 to 1500m
200 to 500 ft
< 800m
< 200 ft
Symbols :   Thunderstorms  Fog  Heavy snow  Heavy precipitations  Wind > 20 kt
SIGMETs :     Misc.  Thunderstorms  Icing  Turbulence  Mountain Waves  Volcanic Ashes







- Airport Elevation : 162 ft
- IATA code : BOD
- Download approach charts


LFBD - Bordeaux / Merignac

CURRENT METAR :
  • 220030Z AUTO 20005KT CAVOK 16/14 Q1014 NOSIG

EXPIRED METARs :
  • 220000Z AUTO 19006KT CAVOK 16/14 Q1014 NOSIG
  • 212330Z AUTO 18007KT CAVOK 16/14 Q1014 NOSIG
  • 212300Z AUTO 19006KT CAVOK 16/14 Q1014 NOSIG
  • 212230Z AUTO 21005KT CAVOK 17/14 Q1014 NOSIG
  • 212200Z AUTO 22005KT CAVOK 17/14 Q1014 NOSIG

TAF TAF LFBD
Valid from the 22 at 00:00 until the 23 at 06:00 UTC


212300Z 2200/2306 22005KT CAVOK
BECMG 2200/2202 BKN030
PROB30
TEMPO 2205/2209 4500 -DZ BKN014
PROB30
TEMPO 2301/2306 4500 -DZRA BKN014 TX24/2215Z TN17/2303Z
ATIS : +33 5 57 92 81 04
No reported NOTAMs for that airfield.



MET'MAP, your aeronautical weather chart ! - Copyright ORBIFLY December 2007 - Disclaimer

ORBIFLY MET'MAP TEAM :

Programming & Development : Alexandra Zaïnal
Concept & Development : Baudouin d'Aumeries
Co-Development & Prog : Marc-Olivier Méhu
Technical & hardware support : Manuel Goepfert

Contact : metmap@orbifly.com




SOURCES & CREDITS :

   NOAA